Time;durP1;ratioP1;P1;durP2;ratioP2;P2;SDS_P1;SDS_P2;PMS_P1;PMS_P2;Temp;Humidity;BMP_temperature;BMP_pressure;BME280_temperature;BME280_humidity;BME280_pressure;Samples;Min_cycle;Max_cycle;Signal;HPM_P1;HPM_P2
2023/10/19 00:01:43;;;;;;;28.52;18.73;;;;;;;;;;5041686;28;20509;-64
2023/10/19 00:04:10;;;;;;;31.73;19.70;;;;;;;;;;5041671;28;20222;-65
2023/10/19 00:06:36;;;;;;;25.80;18.63;;;;;;;;;;5040191;28;20203;-65
2023/10/19 00:09:03;;;;;;;28.40;19.27;;;;;;;;;;5042608;28;20247;-63
2023/10/19 00:11:31;;;;;;;27.60;17.83;;;;;;;;;;5040485;28;20230;-64
2023/10/19 00:13:57;;;;;;;29.17;20.30;;;;;;;;;;5038598;28;20207;-64
2023/10/19 00:16:28;;;;;;;26.10;18.40;;;;;;;;;;5041352;28;20249;-63
2023/10/19 00:18:59;;;;;;;31.08;18.85;;;;;;;;;;5039948;28;20609;-63
2023/10/19 00:21:27;;;;;;;32.03;20.27;;;;;;;;;;5042862;28;20268;-64
2023/10/19 00:23:56;;;;;;;30.15;18.60;;;;;;;;;;5041373;28;20229;-64
2023/10/19 00:26:25;;;;;;;28.23;18.02;;;;;;;;;;5041346;28;20191;-64
2023/10/19 00:28:53;;;;;;;28.00;19.38;;;;;;;;;;5038555;28;20211;-64
2023/10/19 00:31:20;;;;;;;29.67;18.10;;;;;;;;;;5042762;28;20214;-64
2023/10/19 00:33:46;;;;;;;24.27;16.95;;;;;;;;;;5040645;28;20221;-64
2023/10/19 00:36:15;;;;;;;22.85;16.30;;;;;;;;;;5041304;28;20203;-63
2023/10/19 00:38:47;;;;;;;26.42;17.17;;;;;;;;;;5041373;28;20216;-64
2023/10/19 00:41:20;;;;;;;33.38;17.85;;;;;;;;;;5040658;28;20205;-65
2023/10/19 00:43:48;;;;;;;24.80;16.85;;;;;;;;;;5040868;28;20314;-64
2023/10/19 00:46:20;;;;;;;25.85;18.30;;;;;;;;;;5042035;28;20213;-63
2023/10/19 00:48:49;;;;;;;23.67;16.50;;;;;;;;;;5042112;28;20299;-64
2023/10/19 00:53:59;;;;;;;24.48;17.08;;;;;;;;;;5035355;28;20207;-63
2023/10/19 00:56:31;;;;;;;29.75;17.35;;;;;;;;;;5040611;28;20203;-66
2023/10/19 00:59:00;;;;;;;28.60;19.50;;;;;;;;;;5039414;28;20207;-63
2023/10/19 01:01:29;;;;;;;26.13;18.55;;;;;;;;;;5040683;28;20203;-63
2023/10/19 01:03:58;;;;;;;34.40;19.27;;;;;;;;;;5038744;28;20278;-65
2023/10/19 01:06:31;;;;;;;40.33;18.30;;;;;;;;;;5040931;28;20199;-65
2023/10/19 01:08:57;;;;;;;31.45;18.67;;;;;;;;;;5042798;28;21501;-63
2023/10/19 01:11:28;;;;;;;25.52;18.23;;;;;;;;;;5038731;28;20239;-63
2023/10/19 01:13:55;;;;;;;26.95;17.25;;;;;;;;;;5041548;28;20230;-64
2023/10/19 01:16:22;;;;;;;26.75;17.42;;;;;;;;;;5042525;28;20206;-64
2023/10/19 01:18:53;;;;;;;25.45;16.25;;;;;;;;;;5038933;28;20203;-65
2023/10/19 01:21:21;;;;;;;23.80;17.00;;;;;;;;;;5040372;28;20234;-65
2023/10/19 01:23:49;;;;;;;25.85;17.05;;;;;;;;;;5036356;28;20623;-65
2023/10/19 01:26:21;;;;;;;21.02;15.52;;;;;;;;;;5039977;28;20676;-66
2023/10/19 01:28:51;;;;;;;25.67;16.63;;;;;;;;;;5040851;28;20302;-65
2023/10/19 01:31:22;;;;;;;18.88;14.82;;;;;;;;;;5042950;28;20219;-65
2023/10/19 01:33:49;;;;;;;21.27;15.43;;;;;;;;;;5043640;28;20641;-64
2023/10/19 01:36:15;;;;;;;25.85;16.23;;;;;;;;;;5044792;28;20227;-64
2023/10/19 01:38:42;;;;;;;21.00;15.18;;;;;;;;;;5045797;28;20345;-65
2023/10/19 01:41:14;;;;;;;32.47;17.67;;;;;;;;;;5045171;28;20763;-65
2023/10/19 01:43:40;;;;;;;43.05;32.83;;;;;;;;;;5043164;28;21649;-64
2023/10/19 01:46:11;;;;;;;63.15;46.50;;;;;;;;;;5045929;28;20282;-65
2023/10/19 01:48:38;;;;;;;65.13;43.17;;;;;;;;;;5044926;28;20211;-65
2023/10/19 01:51:05;;;;;;;52.50;38.90;;;;;;;;;;5045257;28;20648;-66
2023/10/19 01:53:31;;;;;;;40.03;29.63;;;;;;;;;;5043727;28;20195;-65
2023/10/19 01:55:58;;;;;;;41.95;28.88;;;;;;;;;;5043956;28;20269;-65
2023/10/19 01:58:26;;;;;;;30.30;22.55;;;;;;;;;;5044860;28;20688;-65
2023/10/19 02:00:54;;;;;;;28.92;20.98;;;;;;;;;;5046188;28;20227;-62
2023/10/19 02:03:23;;;;;;;26.15;19.27;;;;;;;;;;5043640;28;20199;-66
2023/10/19 02:05:50;;;;;;;26.52;18.35;;;;;;;;;;5042997;28;20763;-64
2023/10/19 02:08:17;;;;;;;21.27;15.43;;;;;;;;;;5042823;28;20235;-64
2023/10/19 02:10:46;;;;;;;21.42;14.70;;;;;;;;;;5044456;28;20318;-63
2023/10/19 02:13:15;;;;;;;19.30;16.08;;;;;;;;;;5045473;28;20199;-65
2023/10/19 02:15:43;;;;;;;32.63;21.65;;;;;;;;;;5043579;28;20208;-64
2023/10/19 02:18:09;;;;;;;29.10;23.50;;;;;;;;;;5045011;28;20199;-64
2023/10/19 02:20:35;;;;;;;30.83;23.98;;;;;;;;;;5042558;28;20198;-65
2023/10/19 02:23:04;;;;;;;26.65;21.05;;;;;;;;;;5045334;28;20199;-64
2023/10/19 02:25:36;;;;;;;29.05;18.65;;;;;;;;;;5044369;28;20222;-65
2023/10/19 02:28:02;;;;;;;29.73;18.40;;;;;;;;;;5042645;28;20196;-66
2023/10/19 02:30:29;;;;;;;24.85;18.27;;;;;;;;;;5041263;28;20630;-64
2023/10/19 02:32:56;;;;;;;28.45;20.48;;;;;;;;;;5048007;28;20211;-64
2023/10/19 02:35:22;;;;;;;25.75;18.23;;;;;;;;;;5030565;28;20247;-66
2023/10/19 02:37:48;;;;;;;22.88;16.98;;;;;;;;;;5014507;28;20204;-64
2023/10/19 02:40:19;;;;;;;26.58;17.38;;;;;;;;;;5040902;28;20313;-63
2023/10/19 02:42:47;;;;;;;23.92;16.75;;;;;;;;;;5043022;28;21093;-64
2023/10/19 02:45:15;;;;;;;27.67;17.48;;;;;;;;;;5044935;28;20235;-65
2023/10/19 02:47:42;;;;;;;20.90;16.73;;;;;;;;;;5043341;28;20595;-63
2023/10/19 02:50:13;;;;;;;20.08;15.85;;;;;;;;;;5043886;28;20199;-63
2023/10/19 02:52:40;;;;;;;21.77;16.00;;;;;;;;;;5042158;28;20206;-64
2023/10/19 02:55:07;;;;;;;23.30;16.23;;;;;;;;;;5042266;28;20195;-65
2023/10/19 02:57:33;;;;;;;27.10;15.95;;;;;;;;;;5042886;28;20261;-65
2023/10/19 03:00:00;;;;;;;20.25;15.27;;;;;;;;;;5043253;28;20198;-64
2023/10/19 03:02:26;;;;;;;19.10;15.45;;;;;;;;;;5045382;28;20298;-65
2023/10/19 03:04:53;;;;;;;21.77;16.60;;;;;;;;;;5044425;28;20215;-64
2023/10/19 03:07:19;;;;;;;24.80;16.08;;;;;;;;;;5042943;28;20223;-64
2023/10/19 03:09:49;;;;;;;21.00;16.48;;;;;;;;;;5042353;28;20693;-64
2023/10/19 03:12:15;;;;;;;22.30;16.33;;;;;;;;;;5042009;28;20211;-65
2023/10/19 03:14:43;;;;;;;19.35;14.40;;;;;;;;;;5044277;28;20205;-65
2023/10/19 03:17:09;;;;;;;24.05;17.40;;;;;;;;;;5042337;28;20252;-63
2023/10/19 03:19:35;;;;;;;20.83;15.45;;;;;;;;;;5044501;28;20203;-65
2023/10/19 03:22:01;;;;;;;20.23;15.23;;;;;;;;;;5044783;28;20195;-65
2023/10/19 03:24:36;;;;;;;23.05;16.60;;;;;;;;;;5042569;28;21014;-65
2023/10/19 03:27:08;;;;;;;22.30;15.65;;;;;;;;;;5044268;28;20264;-65
2023/10/19 03:29:38;;;;;;;23.15;15.43;;;;;;;;;;5044001;28;20199;-65
2023/10/19 03:32:05;;;;;;;21.38;15.55;;;;;;;;;;5044627;28;20443;-65
2023/10/19 03:34:32;;;;;;;27.17;16.45;;;;;;;;;;5044229;28;20207;-65
2023/10/19 03:37:05;;;;;;;24.40;18.23;;;;;;;;;;5042122;28;20664;-65
2023/10/19 03:39:34;;;;;;;48.10;29.42;;;;;;;;;;5044271;28;20249;-64
2023/10/19 03:42:00;;;;;;;34.50;21.88;;;;;;;;;;5043699;28;20299;-64
2023/10/19 03:44:31;;;;;;;24.45;15.85;;;;;;;;;;5045063;28;20222;-64
2023/10/19 03:47:11;;;;;;;26.30;18.75;;;;;;;;;;5041754;28;20215;-65
2023/10/19 03:49:38;;;;;;;48.90;27.38;;;;;;;;;;5043412;28;20202;-65
2023/10/19 03:52:19;;;;;;;26.55;18.63;;;;;;;;;;5041958;28;20211;-65
2023/10/19 03:54:48;;;;;;;22.55;16.70;;;;;;;;;;5042253;28;20207;-64
2023/10/19 03:57:19;;;;;;;25.45;16.58;;;;;;;;;;5042821;28;20218;-65
2023/10/19 03:59:46;;;;;;;31.42;17.55;;;;;;;;;;5044235;28;20230;-62
2023/10/19 04:02:14;;;;;;;21.60;15.35;;;;;;;;;;5044070;28;20226;-65
2023/10/19 04:04:43;;;;;;;19.40;15.82;;;;;;;;;;5041495;28;20224;-63
2023/10/19 04:07:17;;;;;;;27.55;17.40;;;;;;;;;;5042877;28;20199;-65
2023/10/19 04:09:57;;;;;;;22.05;15.95;;;;;;;;;;5042092;28;20206;-65
2023/10/19 04:12:24;;;;;;;24.42;16.30;;;;;;;;;;5043127;28;20261;-67
2023/10/19 04:14:53;;;;;;;21.27;16.20;;;;;;;;;;5043402;28;20195;-65
2023/10/19 04:17:21;;;;;;;22.40;15.63;;;;;;;;;;5042992;28;20203;-66
2023/10/19 04:19:48;;;;;;;25.65;16.05;;;;;;;;;;5042251;28;20286;-66
2023/10/19 04:22:22;;;;;;;20.35;15.00;;;;;;;;;;5043602;28;20692;-65
2023/10/19 04:24:48;;;;;;;20.70;15.00;;;;;;;;;;5041415;28;20742;-64
2023/10/19 04:27:15;;;;;;;31.45;16.77;;;;;;;;;;5041540;28;20217;-65
2023/10/19 04:29:43;;;;;;;28.95;15.68;;;;;;;;;;5042201;28;20209;-64
2023/10/19 04:32:13;;;;;;;46.90;27.88;;;;;;;;;;5041152;28;20713;-64
2023/10/19 04:34:40;;;;;;;34.83;22.50;;;;;;;;;;5041959;28;20207;-64
2023/10/19 04:37:06;;;;;;;26.27;18.63;;;;;;;;;;5043329;28;20199;-66
2023/10/19 04:39:34;;;;;;;27.67;18.38;;;;;;;;;;5041411;28;20290;-65
2023/10/19 04:42:00;;;;;;;31.23;19.73;;;;;;;;;;5042354;28;20261;-64
2023/10/19 04:44:27;;;;;;;41.08;19.70;;;;;;;;;;5041098;28;20225;-64
2023/10/19 04:46:55;;;;;;;39.30;22.10;;;;;;;;;;5043286;28;20207;-64
2023/10/19 04:49:22;;;;;;;46.17;24.90;;;;;;;;;;5042430;28;20215;-61
2023/10/19 04:51:48;;;;;;;63.03;33.83;;;;;;;;;;5041056;28;20403;-65
2023/10/19 04:54:14;;;;;;;49.13;26.38;;;;;;;;;;5040026;28;20280;-65
2023/10/19 04:56:41;;;;;;;40.15;22.88;;;;;;;;;;5041416;28;20673;-66
2023/10/19 04:59:07;;;;;;;39.60;21.38;;;;;;;;;;5043944;28;20230;-66
2023/10/19 05:01:34;;;;;;;53.85;20.92;;;;;;;;;;5042929;28;20208;-67
2023/10/19 05:04:01;;;;;;;35.83;18.88;;;;;;;;;;5042368;28;20234;-64
2023/10/19 05:06:28;;;;;;;27.52;18.45;;;;;;;;;;5042886;28;20223;-64
2023/10/19 05:08:54;;;;;;;41.97;18.20;;;;;;;;;;5046138;28;20257;-65
2023/10/19 05:11:21;;;;;;;39.28;20.17;;;;;;;;;;5046062;28;20234;-65
2023/10/19 05:13:47;;;;;;;42.15;18.92;;;;;;;;;;5046591;28;20211;-63
2023/10/19 05:16:15;;;;;;;44.75;18.63;;;;;;;;;;5046062;28;20203;-66
2023/10/19 05:18:41;;;;;;;63.50;19.92;;;;;;;;;;5046212;28;20203;-65
2023/10/19 05:21:10;;;;;;;29.17;17.58;;;;;;;;;;5045294;28;20261;-65
2023/10/19 05:23:36;;;;;;;32.15;18.70;;;;;;;;;;5044847;28;20230;-67
2023/10/19 05:26:03;;;;;;;27.75;18.38;;;;;;;;;;5045150;28;20273;-65
2023/10/19 05:28:30;;;;;;;29.58;18.02;;;;;;;;;;5045587;28;20218;-65
2023/10/19 05:30:56;;;;;;;28.15;19.20;;;;;;;;;;5044057;28;20226;-67
2023/10/19 05:33:23;;;;;;;34.45;18.45;;;;;;;;;;5047834;28;20739;-65
2023/10/19 05:35:50;;;;;;;28.88;18.05;;;;;;;;;;5044334;28;20199;-67
2023/10/19 05:38:19;;;;;;;31.88;18.88;;;;;;;;;;5044183;28;20625;-65
2023/10/19 05:40:45;;;;;;;25.65;17.95;;;;;;;;;;5047581;28;20207;-71
2023/10/19 05:43:12;;;;;;;24.42;16.92;;;;;;;;;;5046351;28;20681;-66
2023/10/19 05:45:38;;;;;;;22.80;16.60;;;;;;;;;;5045076;28;20250;-66
2023/10/19 05:48:06;;;;;;;23.70;16.13;;;;;;;;;;5047916;28;20199;-63
2023/10/19 05:50:33;;;;;;;25.45;18.23;;;;;;;;;;5046460;28;20244;-66
2023/10/19 05:52:59;;;;;;;31.95;18.08;;;;;;;;;;5047020;28;20318;-63
2023/10/19 05:55:28;;;;;;;27.45;18.08;;;;;;;;;;5045731;28;20522;-65
2023/10/19 05:57:55;;;;;;;28.52;17.60;;;;;;;;;;5046547;28;20664;-67
2023/10/19 06:00:25;;;;;;;31.30;18.85;;;;;;;;;;5043888;28;20210;-63
2023/10/19 06:02:52;;;;;;;25.63;18.10;;;;;;;;;;5045975;28;20214;-66
2023/10/19 06:05:19;;;;;;;26.02;17.23;;;;;;;;;;5044841;28;20247;-66
2023/10/19 06:07:45;;;;;;;24.65;17.50;;;;;;;;;;5044492;28;20239;-67
2023/10/19 06:10:15;;;;;;;26.40;18.27;;;;;;;;;;5046181;28;20226;-66
2023/10/19 06:12:44;;;;;;;24.17;16.98;;;;;;;;;;5043839;28;20199;-62
2023/10/19 06:15:11;;;;;;;28.85;17.67;;;;;;;;;;5045737;28;20253;-64
2023/10/19 06:17:37;;;;;;;32.22;20.70;;;;;;;;;;5043061;28;20213;-65
2023/10/19 06:20:04;;;;;;;31.35;21.55;;;;;;;;;;5044742;28;20210;-67
2023/10/19 06:22:31;;;;;;;34.75;18.75;;;;;;;;;;5043221;28;20210;-67
2023/10/19 06:24:57;;;;;;;24.73;18.45;;;;;;;;;;5040423;28;20215;-63
2023/10/19 06:27:24;;;;;;;29.13;20.40;;;;;;;;;;5043120;28;20253;-68
2023/10/19 06:29:52;;;;;;;25.67;18.17;;;;;;;;;;5044553;28;20610;-68
2023/10/19 06:32:19;;;;;;;25.77;18.50;;;;;;;;;;5043179;28;20708;-66
2023/10/19 06:34:45;;;;;;;23.05;18.02;;;;;;;;;;5045372;28;20211;-67
2023/10/19 06:37:12;;;;;;;25.60;17.67;;;;;;;;;;5042299;28;20265;-67
2023/10/19 06:39:41;;;;;;;28.27;17.50;;;;;;;;;;5044884;28;20198;-67
2023/10/19 06:42:13;;;;;;;28.40;18.70;;;;;;;;;;5044707;28;20235;-66
2023/10/19 06:44:41;;;;;;;52.10;25.70;;;;;;;;;;5042738;28;20222;-66
2023/10/19 06:47:10;;;;;;;34.30;22.05;;;;;;;;;;5045009;28;20210;-67
2023/10/19 06:49:36;;;;;;;26.45;19.02;;;;;;;;;;5045901;28;20235;-66
2023/10/19 06:52:04;;;;;;;24.73;18.42;;;;;;;;;;5044401;28;20746;-66
2023/10/19 06:54:31;;;;;;;28.70;20.45;;;;;;;;;;5042110;28;20261;-68
2023/10/19 06:56:57;;;;;;;30.40;19.60;;;;;;;;;;5043163;28;20195;-67
2023/10/19 06:59:24;;;;;;;32.45;21.08;;;;;;;;;;5042955;28;20213;-69
2023/10/19 07:01:51;;;;;;;29.38;19.70;;;;;;;;;;5041708;28;20637;-67
2023/10/19 07:04:18;;;;;;;31.95;18.70;;;;;;;;;;5043682;28;20269;-67
2023/10/19 07:06:47;;;;;;;28.70;19.30;;;;;;;;;;5040720;28;20663;-66
2023/10/19 07:09:15;;;;;;;29.70;19.17;;;;;;;;;;5042213;28;20203;-68
2023/10/19 07:11:44;;;;;;;29.27;19.08;;;;;;;;;;5040127;28;20325;-65
2023/10/19 07:14:12;;;;;;;25.33;18.60;;;;;;;;;;5045010;28;20226;-63
2023/10/19 07:16:39;;;;;;;28.77;19.10;;;;;;;;;;5044380;28;20229;-68
2023/10/19 07:19:05;;;;;;;20.80;16.70;;;;;;;;;;5044176;28;20272;-66
2023/10/19 07:21:35;;;;;;;30.48;19.73;;;;;;;;;;5042454;28;20199;-66
2023/10/19 07:24:05;;;;;;;35.00;20.45;;;;;;;;;;5041821;28;20209;-64
2023/10/19 07:26:33;;;;;;;33.90;20.58;;;;;;;;;;5040833;28;20230;-65
2023/10/19 07:29:00;;;;;;;34.55;20.15;;;;;;;;;;5028367;28;20221;-68
2023/10/19 07:31:27;;;;;;;26.65;19.25;;;;;;;;;;5037962;28;20649;-68
2023/10/19 07:33:55;;;;;;;29.58;19.23;;;;;;;;;;5040384;28;21577;-68
2023/10/19 07:36:23;;;;;;;26.20;19.02;;;;;;;;;;5017686;28;21216;-65
2023/10/19 07:38:51;;;;;;;29.27;18.85;;;;;;;;;;5039574;28;20203;-67
2023/10/19 07:41:18;;;;;;;31.92;20.48;;;;;;;;;;5045168;28;20656;-66
2023/10/19 07:43:45;;;;;;;28.30;21.33;;;;;;;;;;5044066;28;20260;-68
2023/10/19 07:46:11;;;;;;;29.40;20.23;;;;;;;;;;5042164;28;20633;-67
2023/10/19 07:48:38;;;;;;;30.63;19.50;;;;;;;;;;5043631;28;20585;-66
2023/10/19 07:51:04;;;;;;;27.27;20.48;;;;;;;;;;5043044;28;20195;-68
2023/10/19 07:53:31;;;;;;;28.67;18.20;;;;;;;;;;5043656;28;20708;-66
2023/10/19 07:55:59;;;;;;;28.50;19.73;;;;;;;;;;5041655;28;20191;-68
2023/10/19 07:58:26;;;;;;;32.63;17.55;;;;;;;;;;5044836;28;20660;-68
2023/10/19 08:00:53;;;;;;;43.45;23.83;;;;;;;;;;5041236;28;20208;-68
2023/10/19 08:03:19;;;;;;;33.88;20.50;;;;;;;;;;5043615;28;20206;-67
2023/10/19 08:05:46;;;;;;;27.67;17.98;;;;;;;;;;5042928;28;20292;-67
2023/10/19 08:08:13;;;;;;;80.80;33.95;;;;;;;;;;5041041;28;20199;-66
2023/10/19 08:10:39;;;;;;;29.40;20.30;;;;;;;;;;5044022;28;20704;-67
2023/10/19 08:13:07;;;;;;;27.80;19.70;;;;;;;;;;5044328;28;20199;-67
2023/10/19 08:15:33;;;;;;;19.98;15.02;;;;;;;;;;5042013;28;20208;-66
2023/10/19 08:18:00;;;;;;;28.15;15.75;;;;;;;;;;5042393;28;20917;-67
2023/10/19 08:20:30;;;;;;;18.35;15.07;;;;;;;;;;5043907;28;20199;-68
2023/10/19 08:22:57;;;;;;;19.60;15.85;;;;;;;;;;5040036;28;20202;-67
2023/10/19 08:25:27;;;;;;;16.92;12.80;;;;;;;;;;5043451;28;20234;-67
2023/10/19 08:27:56;;;;;;;23.48;13.63;;;;;;;;;;5042139;28;20230;-70
2023/10/19 08:30:23;;;;;;;12.10;9.88;;;;;;;;;;5043743;28;20221;-70
2023/10/19 08:32:51;;;;;;;11.00;9.90;;;;;;;;;;5041364;28;20199;-66
2023/10/19 08:35:20;;;;;;;8.88;8.10;;;;;;;;;;5040692;28;20199;-67
2023/10/19 08:37:47;;;;;;;11.00;9.80;;;;;;;;;;5042398;28;20206;-69
2023/10/19 08:40:14;;;;;;;8.80;7.75;;;;;;;;;;5042769;28;20199;-68
2023/10/19 08:42:41;;;;;;;15.15;9.60;;;;;;;;;;5048816;28;20199;-67
2023/10/19 08:45:08;;;;;;;19.40;10.82;;;;;;;;;;5047449;28;20745;-68
2023/10/19 08:47:36;;;;;;;12.02;10.80;;;;;;;;;;5048405;28;20707;-68
2023/10/19 08:50:04;;;;;;;14.32;10.23;;;;;;;;;;5046999;28;20561;-66
2023/10/19 08:52:32;;;;;;;12.30;11.13;;;;;;;;;;5046154;28;20207;-66
2023/10/19 08:54:58;;;;;;;11.63;10.63;;;;;;;;;;5046766;28;20721;-68
2023/10/19 08:57:25;;;;;;;12.25;10.32;;;;;;;;;;5046811;28;20264;-68
2023/10/19 08:59:52;;;;;;;11.10;10.00;;;;;;;;;;5046455;28;20199;-66
2023/10/19 09:02:18;;;;;;;10.43;9.38;;;;;;;;;;5046265;28;20614;-68
2023/10/19 09:04:48;;;;;;;11.98;10.68;;;;;;;;;;5044160;28;20222;-68
2023/10/19 09:07:17;;;;;;;12.85;10.63;;;;;;;;;;5047367;28;20223;-66
2023/10/19 09:09:47;;;;;;;13.13;11.13;;;;;;;;;;5045120;28;20201;-68
2023/10/19 09:12:13;;;;;;;12.55;10.43;;;;;;;;;;5048643;28;20202;-69
2023/10/19 09:14:41;;;;;;;19.40;12.73;;;;;;;;;;5048640;28;20203;-68
2023/10/19 09:17:07;;;;;;;14.32;11.57;;;;;;;;;;5052317;28;20310;-65
2023/10/19 09:19:38;;;;;;;12.70;11.38;;;;;;;;;;5050327;28;20211;-67
2023/10/19 09:22:16;;;;;;;9.93;8.93;;;;;;;;;;5046899;28;20695;-68
2023/10/19 09:24:43;;;;;;;11.18;10.02;;;;;;;;;;5046778;28;20199;-68
2023/10/19 09:27:09;;;;;;;9.80;8.95;;;;;;;;;;5045999;28;20763;-67
2023/10/19 09:29:36;;;;;;;9.68;8.77;;;;;;;;;;5047430;28;20202;-70
2023/10/19 09:32:04;;;;;;;10.50;8.60;;;;;;;;;;5044506;28;20728;-68
2023/10/19 09:34:32;;;;;;;9.68;8.68;;;;;;;;;;5049005;28;20207;-65
2023/10/19 09:37:00;;;;;;;9.90;8.98;;;;;;;;;;5048683;28;20759;-68
2023/10/19 09:39:34;;;;;;;11.38;9.82;;;;;;;;;;5047070;28;20268;-66
2023/10/19 09:42:01;;;;;;;10.70;9.65;;;;;;;;;;5045145;28;20199;-68
2023/10/19 09:44:31;;;;;;;12.57;9.95;;;;;;;;;;5046765;28;20233;-66
2023/10/19 09:46:58;;;;;;;10.32;9.30;;;;;;;;;;5043817;28;20256;-66
2023/10/19 09:49:25;;;;;;;10.63;9.57;;;;;;;;;;5043521;28;20258;-67
2023/10/19 09:51:52;;;;;;;10.68;9.77;;;;;;;;;;5044469;28;20211;-67
2023/10/19 09:54:24;;;;;;;10.15;9.13;;;;;;;;;;5046873;28;20254;-68
2023/10/19 09:56:59;;;;;;;10.73;9.57;;;;;;;;;;5046661;28;20807;-66
2023/10/19 09:59:30;;;;;;;10.30;9.02;;;;;;;;;;5046072;28;20195;-67
2023/10/19 10:02:15;;;;;;;9.77;8.77;;;;;;;;;;5042760;28;20226;-66
2023/10/19 10:04:42;;;;;;;11.93;10.32;;;;;;;;;;5046861;28;20199;-69
2023/10/19 10:07:09;;;;;;;11.45;8.98;;;;;;;;;;5045809;28;20237;-67
2023/10/19 10:09:39;;;;;;;10.52;9.68;;;;;;;;;;5045630;28;20765;-67
2023/10/19 10:12:21;;;;;;;11.88;10.73;;;;;;;;;;5046070;28;20203;-68
2023/10/19 10:14:55;;;;;;;11.80;9.35;;;;;;;;;;5044120;28;20203;-67
2023/10/19 10:17:22;;;;;;;9.85;8.93;;;;;;;;;;5044556;28;20194;-68
2023/10/19 10:19:49;;;;;;;10.25;9.20;;;;;;;;;;5044690;28;20602;-69
2023/10/19 10:22:16;;;;;;;10.57;9.50;;;;;;;;;;5045796;28;20203;-69
2023/10/19 10:24:42;;;;;;;11.02;9.32;;;;;;;;;;5045694;28;20290;-67
2023/10/19 10:27:10;;;;;;;11.00;9.68;;;;;;;;;;5042822;28;20233;-66
2023/10/19 10:29:38;;;;;;;9.57;8.68;;;;;;;;;;5044985;28;20203;-68
2023/10/19 10:32:05;;;;;;;10.15;9.25;;;;;;;;;;5044329;28;20255;-67
2023/10/19 10:34:43;;;;;;;9.90;8.88;;;;;;;;;;5045882;28;20203;-66
2023/10/19 10:37:11;;;;;;;9.65;8.70;;;;;;;;;;5043581;28;20642;-68
2023/10/19 10:39:38;;;;;;;11.77;8.35;;;;;;;;;;5045488;28;20199;-68
2023/10/19 10:42:05;;;;;;;9.80;8.82;;;;;;;;;;5045235;28;20665;-67
2023/10/19 10:44:40;;;;;;;9.57;8.73;;;;;;;;;;5043493;28;20207;-68
2023/10/19 10:47:08;;;;;;;10.40;9.40;;;;;;;;;;5040745;28;20288;-66
2023/10/19 10:49:35;;;;;;;8.35;7.65;;;;;;;;;;5043551;28;20207;-66
2023/10/19 10:52:01;;;;;;;10.23;9.15;;;;;;;;;;5045615;28;20208;-68
2023/10/19 10:54:28;;;;;;;7.97;7.38;;;;;;;;;;5044192;28;20305;-65
2023/10/19 10:56:55;;;;;;;8.75;7.95;;;;;;;;;;5042532;28;20202;-68
2023/10/19 10:59:21;;;;;;;7.63;6.95;;;;;;;;;;5044933;28;20665;-68
2023/10/19 11:01:50;;;;;;;8.30;7.40;;;;;;;;;;5044249;28;20227;-68
2023/10/19 11:04:16;;;;;;;7.85;7.10;;;;;;;;;;5043634;28;20202;-68
2023/10/19 11:06:50;;;;;;;7.47;6.88;;;;;;;;;;5043424;28;20223;-68
2023/10/19 11:09:18;;;;;;;9.68;6.63;;;;;;;;;;5044119;28;20512;-68
2023/10/19 11:11:45;;;;;;;7.78;7.07;;;;;;;;;;5044962;28;20317;-70
2023/10/19 11:14:12;;;;;;;6.72;5.70;;;;;;;;;;5044198;28;20698;-66
2023/10/19 11:16:39;;;;;;;6.25;5.80;;;;;;;;;;5043992;28;20286;-69
2023/10/19 11:19:07;;;;;;;6.18;5.68;;;;;;;;;;5044707;28;20291;-69
2023/10/19 11:21:34;;;;;;;6.80;6.20;;;;;;;;;;5044759;28;20196;-70
2023/10/19 11:24:00;;;;;;;7.47;6.88;;;;;;;;;;5043857;28;20286;-69
2023/10/19 11:26:27;;;;;;;5.55;5.15;;;;;;;;;;5044137;28;20219;-70
2023/10/19 11:29:00;;;;;;;6.82;6.22;;;;;;;;;;5042782;28;20929;-66
2023/10/19 11:31:27;;;;;;;7.65;7.10;;;;;;;;;;5043476;28;20223;-68
2023/10/19 11:33:55;;;;;;;6.90;6.25;;;;;;;;;;5042104;28;20693;-68
2023/10/19 11:36:24;;;;;;;10.60;7.30;;;;;;;;;;5042054;28;20230;-68
2023/10/19 11:38:52;;;;;;;7.68;7.07;;;;;;;;;;5042852;28;20202;-69
2023/10/19 11:41:19;;;;;;;8.93;8.02;;;;;;;;;;5042951;28;20210;-64
2023/10/19 11:43:46;;;;;;;7.72;7.05;;;;;;;;;;5042545;28;20242;-67
2023/10/19 11:46:14;;;;;;;8.10;7.50;;;;;;;;;;5042491;28;20631;-69
2023/10/19 11:48:42;;;;;;;8.90;8.13;;;;;;;;;;5043919;28;20211;-68
2023/10/19 11:51:10;;;;;;;8.00;7.22;;;;;;;;;;5042797;28;20206;-68
2023/10/19 11:53:39;;;;;;;7.40;6.70;;;;;;;;;;5040992;28;20587;-68
2023/10/19 11:56:06;;;;;;;6.30;5.65;;;;;;;;;;5042829;28;20648;-68
2023/10/19 11:58:34;;;;;;;7.35;6.65;;;;;;;;;;5042456;28;20211;-67
2023/10/19 12:01:01;;;;;;;12.25;6.53;;;;;;;;;;5043488;28;20629;-67
2023/10/19 12:03:28;;;;;;;6.90;6.43;;;;;;;;;;5044280;28;20195;-67
2023/10/19 12:05:55;;;;;;;5.88;5.47;;;;;;;;;;5041018;28;20211;-67
2023/10/19 12:08:22;;;;;;;7.18;6.57;;;;;;;;;;5043080;28;20223;-68
2023/10/19 12:10:50;;;;;;;8.52;6.97;;;;;;;;;;5042969;28;20239;-66
2023/10/19 12:13:16;;;;;;;7.72;6.97;;;;;;;;;;5042986;28;20742;-66
2023/10/19 12:15:51;;;;;;;7.68;6.70;;;;;;;;;;5043450;28;20293;-64
2023/10/19 12:18:17;;;;;;;8.02;7.00;;;;;;;;;;5042736;28;20210;-66
2023/10/19 12:20:45;;;;;;;8.43;7.63;;;;;;;;;;5042586;28;20198;-67
2023/10/19 12:23:12;;;;;;;7.20;6.68;;;;;;;;;;5041385;28;20199;-64
2023/10/19 12:25:38;;;;;;;8.73;6.13;;;;;;;;;;5041123;28;20628;-66
2023/10/19 12:28:07;;;;;;;8.25;5.97;;;;;;;;;;5043493;28;20223;-68
2023/10/19 12:30:36;;;;;;;6.97;5.82;;;;;;;;;;5041736;28;20639;-67
2023/10/19 12:33:07;;;;;;;7.13;6.45;;;;;;;;;;5042845;28;20214;-68
2023/10/19 12:35:44;;;;;;;7.28;6.68;;;;;;;;;;5040308;28;20266;-66
2023/10/19 12:38:15;;;;;;;5.72;5.28;;;;;;;;;;5043895;28;20195;-67
2023/10/19 12:40:42;;;;;;;7.90;6.10;;;;;;;;;;5041778;28;20195;-67
2023/10/19 12:43:12;;;;;;;7.03;6.35;;;;;;;;;;5043289;28;20211;-66
2023/10/19 12:45:39;;;;;;;6.15;5.55;;;;;;;;;;5041344;28;20202;-68
2023/10/19 12:48:06;;;;;;;6.07;5.57;;;;;;;;;;5042438;28;20288;-68
2023/10/19 12:50:33;;;;;;;7.15;6.32;;;;;;;;;;5041550;28;20272;-67
2023/10/19 12:53:00;;;;;;;6.18;5.68;;;;;;;;;;5042400;28;20199;-65
2023/10/19 12:55:27;;;;;;;5.90;5.50;;;;;;;;;;5040462;28;20203;-65
2023/10/19 12:57:53;;;;;;;5.43;5.03;;;;;;;;;;5043756;28;20199;-68
2023/10/19 13:00:25;;;;;;;6.13;5.72;;;;;;;;;;5042542;28;20841;-66
2023/10/19 13:02:59;;;;;;;7.75;6.65;;;;;;;;;;5042678;28;20218;-67
2023/10/19 13:05:26;;;;;;;5.63;5.13;;;;;;;;;;5041224;28;20203;-66
2023/10/19 13:07:53;;;;;;;7.13;5.93;;;;;;;;;;5043134;28;20223;-66
2023/10/19 13:10:20;;;;;;;6.00;5.60;;;;;;;;;;5043066;28;20238;-65
2023/10/19 13:12:47;;;;;;;6.03;5.53;;;;;;;;;;5042153;28;20199;-67
2023/10/19 13:15:13;;;;;;;6.05;5.50;;;;;;;;;;5040517;28;20205;-66
2023/10/19 13:17:42;;;;;;;5.75;4.78;;;;;;;;;;5042598;28;20295;-67
2023/10/19 13:20:18;;;;;;;5.32;4.82;;;;;;;;;;5040701;28;20203;-68
2023/10/19 13:22:44;;;;;;;5.82;5.07;;;;;;;;;;5043251;28;20202;-67
2023/10/19 13:25:12;;;;;;;5.22;4.88;;;;;;;;;;5043321;28;20237;-66
2023/10/19 13:27:41;;;;;;;7.15;5.63;;;;;;;;;;5046256;28;20218;-69
2023/10/19 13:30:10;;;;;;;9.63;5.13;;;;;;;;;;5045233;28;20196;-69
2023/10/19 13:32:36;;;;;;;8.25;5.80;;;;;;;;;;5046618;28;20605;-67
2023/10/19 13:35:05;;;;;;;6.85;5.18;;;;;;;;;;5046024;28;20257;-66
2023/10/19 13:37:31;;;;;;;9.70;5.93;;;;;;;;;;5044793;28;20696;-67
2023/10/19 13:39:58;;;;;;;7.22;5.65;;;;;;;;;;5043846;28;20570;-67
2023/10/19 13:42:25;;;;;;;6.13;5.72;;;;;;;;;;5046842;28;20211;-68
2023/10/19 13:44:51;;;;;;;6.97;6.43;;;;;;;;;;5046836;28;20229;-68
2023/10/19 13:47:18;;;;;;;15.25;5.93;;;;;;;;;;5045467;28;20227;-68
2023/10/19 13:49:46;;;;;;;7.07;4.97;;;;;;;;;;5046857;28;20207;-66
2023/10/19 13:52:15;;;;;;;5.45;5.05;;;;;;;;;;5045169;28;20294;-64
2023/10/19 13:54:41;;;;;;;5.75;5.05;;;;;;;;;;5045356;28;20218;-68
2023/10/19 13:57:09;;;;;;;6.57;4.57;;;;;;;;;;5046454;28;20252;-67
2023/10/19 13:59:36;;;;;;;7.28;5.15;;;;;;;;;;5043620;28;20231;-68
2023/10/19 14:02:03;;;;;;;5.40;5.00;;;;;;;;;;5046014;28;20211;-67
2023/10/19 14:04:29;;;;;;;4.25;3.88;;;;;;;;;;5045561;28;20253;-69
2023/10/19 14:06:56;;;;;;;11.50;4.65;;;;;;;;;;5045690;28;20293;-68
2023/10/19 14:09:26;;;;;;;7.30;4.20;;;;;;;;;;5046382;28;20230;-67
2023/10/19 14:11:53;;;;;;;4.68;4.28;;;;;;;;;;5042302;28;20310;-67
2023/10/19 14:14:19;;;;;;;5.38;4.90;;;;;;;;;;5044622;28;20215;-64
2023/10/19 14:16:46;;;;;;;4.10;3.80;;;;;;;;;;5042223;28;20249;-64
2023/10/19 14:19:14;;;;;;;5.47;4.47;;;;;;;;;;5044038;28;20195;-68
2023/10/19 14:21:43;;;;;;;4.75;4.45;;;;;;;;;;5044974;28;20229;-67
2023/10/19 14:24:09;;;;;;;4.18;3.90;;;;;;;;;;5045493;28;20202;-68
2023/10/19 14:26:38;;;;;;;10.00;5.15;;;;;;;;;;5044344;28;20221;-67
2023/10/19 14:29:05;;;;;;;8.45;4.28;;;;;;;;;;5044644;28;20226;-68
2023/10/19 14:31:31;;;;;;;4.45;4.05;;;;;;;;;;5044243;28;20222;-70
2023/10/19 14:33:59;;;;;;;6.93;4.05;;;;;;;;;;5044480;28;20195;-67